Granby, MA (01033)

8:46 AM EST on February 07, 2016 (GMT -0500)
South Hadley & surrounded by trees | | Change Station
CLOSE
Current Station
Personal Weather Station
Location: South Hadley, MA
Elevation: 265 ft
Nearby Weather Stations

Elev 265 ft 42.27 °N, 72.52 °W | Updated 13 seconds ago

Mostly Cloudy
Mostly Cloudy
14.7 °F
Feels Like 15 °F
N
0.0
Wind Variable Wind from ENE
Gusts 0.0 mph

Today
High -- | Low -- °F
--% Chance of Precip.
Yesterday
High -- | Low -- °F
Precip. -- in
Pressure 30.18 in
Visibility 7.0 miles
Clouds Clear
Windchill 15 °F
Dew Point 11 °F
Humidity 86%
Rainfall 0.00 in
Snow Depth Not available.
6:57 AM 5:11 PM
Waning Crescent, 1% visible
METAR KCEF 071258Z 36002KT 7SM CLR M09/M11 A3015 RMK AO2A SLP220 T10951112
Pressure 30.18 in
Visibility 7.0 miles
Clouds Clear
Windchill 15 °F
Dew Point 11 °F
Humidity 86%
Rainfall 0.00 in
Snow Depth Not available.
6:57 AM 5:11 PM
Waning Crescent, 1% visible
METAR KCEF 071258Z 36002KT 7SM CLR M09/M11 A3015 RMK AO2A SLP220 T10951112

10-Day Weather Forecast

Almanac

Astronomy

Feb. 07, 2016 Rise Set
Actual Time
Civil Twilight
Nautical Twilight
Astronomical Twilight
Moon
Length of Visible Light
Length of Day
Tomorrow will be .
, % of the Moon is Illuminated

Today's Extremes

State Highs State Lows

Community

WunderPhotos

Upload Photos

1,891,190 photos uploaded!

WunderBlog® & News

Nearby

Air Quality

  Air Quality AQ Index Pollutant
Not available.

Snow Depth

Station Depth Elevation

Earthquake Activity

City Distance Mag. Time & Date
Minimum magnitude displayed is 2.5.

Coastal Water Temperatures

Place Temperature

Stations

Nearby Weather Stations

Station Location Temp. Windchill Dew Point Humidity Wind Precip. Elev Updated Type
                   

Watches & Warnings

There are currently no watches in effect.